createdAt,value
2022-10-29T00:01:54.673Z,15.55
2022-10-29T00:06:59.175Z,15.53
2022-10-29T00:12:02.083Z,15.39
2022-10-29T00:17:04.912Z,15.56
2022-10-29T00:22:09.133Z,15.59
2022-10-29T00:27:12.091Z,15.58
2022-10-29T00:32:14.991Z,15.56
2022-10-29T00:37:19.201Z,15.37
2022-10-29T00:42:22.331Z,15.21
2022-10-29T00:47:29.008Z,15.08
2022-10-29T00:52:35.382Z,14.95
2022-10-29T00:57:41.052Z,14.97
2022-10-29T01:02:45.897Z,14.87
2022-10-29T01:07:50.287Z,14.85
2022-10-29T01:13:19.823Z,14.73
2022-10-29T01:18:29.217Z,14.68
2022-10-29T01:24:02.687Z,14.59
2022-10-29T01:29:20.750Z,14.53
2022-10-29T01:34:29.938Z,14.49
2022-10-29T01:39:38.899Z,14.39
2022-10-29T01:44:46.755Z,14.34
2022-10-29T01:49:55.217Z,14.23
2022-10-29T01:54:59.225Z,14.10
2022-10-29T02:00:05.836Z,14.07
2022-10-29T02:05:27.523Z,13.96
2022-10-29T02:10:38.021Z,13.91
2022-10-29T02:15:44.740Z,13.87
2022-10-29T02:20:49.231Z,13.88
2022-10-29T02:25:52.129Z,13.84
2022-10-29T02:30:54.997Z,13.74
2022-10-29T02:35:59.321Z,13.66
2022-10-29T02:41:02.370Z,13.69
2022-10-29T02:46:15.633Z,13.74
2022-10-29T02:51:19.840Z,13.92
2022-10-29T02:56:22.665Z,14.01
2022-10-29T03:01:26.087Z,14.10
2022-10-29T03:06:30.632Z,14.02
2022-10-29T03:11:33.730Z,13.98
2022-10-29T03:16:36.546Z,14.12
2022-10-29T03:21:40.801Z,14.06
2022-10-29T03:26:43.625Z,14.00
2022-10-29T03:31:46.507Z,14.06
2022-10-29T03:36:51.454Z,14.14
2022-10-29T03:41:54.458Z,14.07
2022-10-29T03:46:57.222Z,14.08
2022-10-29T03:52:01.397Z,14.13
2022-10-29T03:57:05.431Z,14.22
2022-10-29T04:02:09.387Z,14.17
2022-10-29T04:07:14.447Z,14.02
2022-10-29T04:12:17.280Z,13.89
2022-10-29T04:17:20.070Z,13.81
2022-10-29T04:28:41.946Z,13.81
2022-10-29T04:33:09.916Z,13.79
2022-10-29T04:38:14.658Z,13.91
2022-10-29T04:43:17.886Z,14.01
2022-10-29T04:48:21.442Z,14.11
2022-10-29T04:53:25.731Z,14.23
2022-10-29T04:58:30.657Z,14.28
2022-10-29T05:03:35.180Z,14.37
2022-10-29T05:08:39.450Z,14.14
2022-10-29T05:13:42.352Z,14.21
2022-10-29T05:18:45.496Z,14.17
2022-10-29T05:24:29.568Z,14.20
2022-10-29T05:29:32.393Z,14.28
2022-10-29T05:34:35.332Z,14.32
2022-10-29T05:39:39.776Z,14.39
2022-10-29T05:44:43.670Z,14.39
2022-10-29T05:49:46.600Z,14.34
2022-10-29T05:54:51.031Z,14.38
2022-10-29T05:59:53.815Z,14.35
2022-10-29T06:04:56.814Z,14.26
2022-10-29T06:10:01.397Z,14.33
2022-10-29T06:15:04.939Z,14.26
2022-10-29T06:20:09.436Z,13.99
2022-10-29T06:25:13.759Z,13.81
2022-10-29T06:30:16.829Z,13.75
2022-10-29T06:35:19.694Z,13.82
2022-10-29T06:40:24.044Z,13.72
2022-10-29T06:45:26.913Z,13.69
2022-10-29T06:50:30.370Z,13.70
2022-10-29T06:55:38.636Z,13.66
2022-10-29T07:00:42.658Z,13.78
2022-10-29T07:05:46.192Z,13.80
2022-10-29T07:10:51.945Z,14.02
2022-10-29T07:15:54.731Z,14.10
2022-10-29T07:20:58.600Z,14.07
2022-10-29T07:26:03.012Z,14.18
2022-10-29T07:31:07.800Z,14.48
2022-10-29T07:36:10.762Z,14.41
2022-10-29T07:41:15.282Z,14.55
2022-10-29T07:46:18.134Z,14.50
2022-10-29T07:51:20.969Z,14.56
2022-10-29T07:56:25.098Z,14.71
2022-10-29T08:01:27.944Z,15.19
2022-10-29T08:06:30.907Z,14.89
2022-10-29T08:11:35.346Z,15.09
2022-10-29T08:16:38.231Z,15.06
2022-10-29T08:21:41.277Z,15.14
2022-10-29T08:26:45.824Z,15.46
2022-10-29T08:31:48.676Z,15.77
2022-10-29T08:36:51.454Z,15.97
2022-10-29T08:42:10.363Z,15.49
2022-10-29T08:47:19.011Z,15.49
2022-10-29T08:52:27.727Z,15.84
2022-10-29T08:57:34.921Z,15.90
2022-10-29T09:02:40.255Z,15.86
2022-10-29T09:08:06.948Z,15.88
2022-10-29T09:13:27.960Z,15.69
2022-10-29T09:18:48.577Z,16.01
2022-10-29T09:24:03.082Z,16.14
2022-10-29T09:29:25.878Z,15.87
2022-10-29T09:34:32.853Z,16.27
2022-10-29T09:39:40.757Z,16.63
2022-10-29T09:44:54.065Z,16.92
2022-10-29T09:50:08.794Z,16.76
2022-10-29T09:55:20.860Z,17.13
2022-10-29T10:00:27.401Z,17.46
2022-10-29T10:05:32.329Z,16.89
2022-10-29T10:10:37.200Z,16.96
2022-10-29T10:15:51.266Z,17.25
2022-10-29T10:21:04.051Z,17.20
2022-10-29T10:26:07.439Z,17.35
2022-10-29T10:31:16.111Z,17.43
2022-10-29T10:36:21.676Z,17.43
2022-10-29T10:41:28.615Z,17.36
2022-10-29T10:46:35.709Z,17.32
2022-10-29T10:51:40.744Z,17.41
2022-10-29T10:56:53.629Z,17.60
2022-10-29T11:02:01.013Z,17.50
2022-10-29T11:07:08.248Z,17.45
2022-10-29T11:12:15.882Z,17.56
2022-10-29T11:17:28.229Z,17.35
2022-10-29T11:22:35.531Z,17.82
2022-10-29T11:27:46.633Z,18.28
2022-10-29T11:33:03.739Z,18.44
2022-10-29T11:38:14.338Z,18.59
2022-10-29T11:43:21.149Z,18.64
2022-10-29T11:48:38.010Z,18.70
2022-10-29T11:53:56.762Z,18.40
2022-10-29T11:59:05.853Z,18.72
2022-10-29T12:04:25.403Z,18.68
2022-10-29T12:10:01.300Z,18.85
2022-10-29T12:15:13.770Z,18.64
2022-10-29T12:20:27.780Z,19.46
2022-10-29T12:25:40.421Z,19.56
2022-10-29T12:30:54.366Z,19.52
2022-10-29T12:36:04.775Z,19.34
2022-10-29T12:41:14.704Z,19.06
2022-10-29T12:46:27.437Z,19.41
2022-10-29T12:51:41.269Z,19.47
2022-10-29T12:56:47.860Z,19.38
2022-10-29T13:07:26.693Z,19.74
2022-10-29T13:13:01.214Z,19.39
2022-10-29T13:18:09.153Z,19.16
2022-10-29T13:23:35.928Z,19.39
2022-10-29T13:28:51.185Z,19.40
2022-10-29T13:33:54.353Z,19.31
2022-10-29T13:39:07.505Z,18.97
2022-10-29T13:44:13.232Z,18.37
2022-10-29T13:49:23.006Z,18.37
2022-10-29T13:54:38.411Z,18.78
2022-10-29T13:59:44.244Z,18.82
2022-10-29T14:04:50.599Z,18.78
2022-10-29T14:09:57.912Z,18.98
2022-10-29T14:15:12.480Z,19.17
2022-10-29T14:20:23.133Z,19.19
2022-10-29T14:25:37.739Z,19.20
2022-10-29T14:30:40.577Z,19.04
2022-10-29T14:35:44.090Z,18.95
2022-10-29T14:40:48.762Z,18.75
2022-10-29T14:45:52.849Z,18.62
2022-10-29T14:50:56.653Z,18.56
2022-10-29T14:56:05.376Z,18.38
2022-10-29T15:01:15.596Z,18.25
2022-10-29T15:06:20.740Z,18.06
2022-10-29T15:11:37.328Z,17.99
2022-10-29T15:16:42.438Z,17.99
2022-10-29T15:21:46.189Z,17.91
2022-10-29T15:26:53.046Z,17.85
2022-10-29T15:31:58.464Z,17.87
2022-10-29T15:37:16.585Z,17.90
2022-10-29T15:42:23.505Z,17.76
2022-10-29T15:47:29.096Z,17.56
2022-10-29T15:52:33.887Z,17.40
2022-10-29T15:57:38.282Z,17.36
2022-10-29T16:02:41.393Z,17.24
2022-10-29T16:07:45.513Z,17.14
2022-10-29T16:12:50.829Z,17.03
2022-10-29T16:17:54.297Z,17.11
2022-10-29T16:22:57.436Z,17.08
2022-10-29T16:28:01.645Z,17.08
2022-10-29T16:33:04.808Z,17.07
2022-10-29T16:38:07.671Z,17.03
2022-10-29T16:43:12.078Z,16.84
2022-10-29T16:48:14.926Z,16.96
2022-10-29T16:53:17.743Z,17.01
2022-10-29T16:58:22.110Z,17.02
2022-10-29T17:03:24.948Z,16.91
2022-10-29T17:08:32.159Z,16.79
2022-10-29T17:13:36.896Z,16.73
2022-10-29T17:18:39.693Z,16.64
2022-10-29T17:23:42.463Z,16.67
2022-10-29T17:28:46.840Z,16.66
2022-10-29T17:33:52.795Z,16.67
2022-10-29T17:38:55.578Z,16.68
2022-10-29T17:43:59.907Z,16.73
2022-10-29T17:49:02.799Z,16.61
2022-10-29T17:54:05.866Z,16.64
2022-10-29T17:59:10.048Z,16.70
2022-10-29T18:04:13.626Z,16.68
2022-10-29T18:09:21.428Z,16.67
2022-10-29T18:15:01.344Z,16.68
2022-10-29T18:20:12.425Z,16.67
2022-10-29T18:25:15.544Z,16.64
2022-10-29T18:30:23.064Z,16.59
2022-10-29T18:35:27.939Z,16.43
2022-10-29T18:40:31.133Z,16.47
2022-10-29T18:45:34.095Z,16.45
2022-10-29T18:50:40.801Z,16.39
2022-10-29T18:55:52.689Z,16.31
2022-10-29T19:00:55.924Z,16.27
2022-10-29T19:06:03.161Z,16.22
2022-10-29T19:11:13.513Z,16.32
2022-10-29T19:16:16.882Z,16.22
2022-10-29T19:21:21.108Z,16.19
2022-10-29T19:26:34.347Z,16.22
2022-10-29T19:31:37.536Z,16.31
2022-10-29T19:36:43.992Z,16.42
2022-10-29T19:41:46.939Z,16.19
2022-10-29T19:47:02.433Z,16.12
2022-10-29T19:52:16.622Z,16.04
2022-10-29T19:57:22.142Z,15.88
2022-10-29T20:03:29.491Z,15.85
2022-10-29T20:08:37.271Z,15.82
2022-10-29T20:13:41.133Z,15.79
2022-10-29T20:18:44.746Z,15.76
2022-10-29T20:23:50.442Z,15.92
2022-10-29T20:28:53.521Z,15.81
2022-10-29T20:33:57.835Z,15.88
2022-10-29T20:39:02.204Z,15.90
2022-10-29T20:44:05.272Z,15.82
2022-10-29T20:49:08.208Z,15.81
2022-10-29T20:54:12.417Z,15.77
2022-10-29T20:59:15.297Z,15.73
2022-10-29T21:04:18.410Z,15.63
2022-10-29T21:09:23.255Z,15.63
2022-10-29T21:14:27.429Z,15.58
2022-10-29T21:19:30.588Z,15.53
2022-10-29T21:24:35.654Z,15.41
2022-10-29T21:29:38.689Z,15.25
2022-10-29T21:34:41.758Z,15.27
2022-10-29T21:39:45.997Z,15.27
2022-10-29T21:44:48.934Z,15.29
2022-10-29T21:49:52.132Z,15.36
2022-10-29T21:54:56.351Z,15.32
2022-10-29T21:59:59.282Z,15.31
2022-10-29T22:05:02.117Z,15.24
2022-10-29T22:10:07.521Z,15.22
2022-10-29T22:15:10.754Z,15.04
2022-10-29T22:20:15.659Z,15.01
2022-10-29T22:25:21.272Z,14.95
2022-10-29T22:30:24.136Z,14.95
2022-10-29T22:35:27.079Z,14.86
2022-10-29T22:40:31.593Z,14.81
2022-10-29T22:45:34.386Z,14.84
2022-10-29T22:50:37.198Z,14.76
2022-10-29T22:55:41.351Z,14.80
2022-10-29T23:00:44.104Z,14.69
2022-10-29T23:05:57.315Z,14.61
2022-10-29T23:11:05.512Z,14.72
2022-10-29T23:16:08.884Z,14.65
2022-10-29T23:21:11.628Z,14.59
2022-10-29T23:26:15.992Z,14.65
2022-10-29T23:31:20.290Z,14.61
2022-10-29T23:36:25.174Z,14.59
2022-10-29T23:41:30.415Z,14.57
2022-10-29T23:46:33.242Z,14.50
2022-10-29T23:51:35.977Z,14.40
2022-10-29T23:56:40.077Z,14.29
